Time;durP1;ratioP1;P1;durP2;ratioP2;P2;SDS_P1;SDS_P2;PMS_P1;PMS_P2;Temp;Humidity;BMP_temperature;BMP_pressure;BME280_temperature;BME280_humidity;BME280_pressure;Samples;Min_cycle;Max_cycle;Signal;HPM_P1;HPM_P2
2021/12/06 00:01:33;;;;;;;71.57;34.75;;;1.00;99.90;;;;;;5055415;28;20035;-87
2021/12/06 00:04:02;;;;;;;67.78;32.08;;;1.00;99.90;;;;;;5056836;28;20397;-87
2021/12/06 00:06:29;;;;;;;70.75;33.70;;;1.10;99.90;;;;;;5055267;28;20036;-87
2021/12/06 00:08:55;;;;;;;74.03;33.00;;;1.10;99.90;;;;;;5055225;28;20032;-88
2021/12/06 00:11:21;;;;;;;70.85;33.03;;;1.10;99.90;;;;;;5056912;28;20391;-87
2021/12/06 00:13:49;;;;;;;71.65;31.35;;;0.90;99.90;;;;;;5055988;28;20033;-87
2021/12/06 00:16:19;;;;;;;70.88;31.77;;;0.90;99.90;;;;;;5055019;28;20082;-87
2021/12/06 00:18:47;;;;;;;71.87;31.60;;;0.90;99.90;;;;;;5055317;28;20028;-87
2021/12/06 00:21:13;;;;;;;68.53;32.03;;;1.00;99.90;;;;;;5054965;28;20317;-87
2021/12/06 00:23:39;;;;;;;76.43;33.65;;;1.00;99.90;;;;;;5054988;28;20057;-88
2021/12/06 00:26:06;;;;;;;78.00;34.33;;;1.00;99.90;;;;;;5063552;28;20028;-87
2021/12/06 00:28:32;;;;;;;70.82;31.77;;;1.00;99.90;;;;;;5075998;28;20074;-87
2021/12/06 00:30:58;;;;;;;74.05;33.53;;;1.00;99.90;;;;;;5074916;28;20119;-88
2021/12/06 00:33:27;;;;;;;70.28;32.42;;;0.90;99.90;;;;;;5074822;28;20027;-87
2021/12/06 00:35:56;;;;;;;69.10;30.25;;;0.90;99.90;;;;;;5076012;28;20024;-88
2021/12/06 00:38:22;;;;;;;68.30;31.48;;;1.00;99.90;;;;;;5074794;28;20451;-87
2021/12/06 00:40:49;;;;;;;66.65;32.33;;;1.00;99.90;;;;;;5070791;28;20124;-88
2021/12/06 00:43:16;;;;;;;67.50;29.83;;;1.00;99.90;;;;;;5056116;28;20018;-88
2021/12/06 00:45:42;;;;;;;69.68;31.45;;;1.00;99.90;;;;;;5054717;28;20049;-88
2021/12/06 00:48:09;;;;;;;68.22;31.20;;;1.00;99.90;;;;;;5054594;28;20025;-87
2021/12/06 00:50:38;;;;;;;67.43;30.65;;;1.00;99.90;;;;;;5055688;28;20025;-88
2021/12/06 00:53:04;;;;;;;74.28;32.58;;;1.10;99.90;;;;;;5054465;28;20025;-87
2021/12/06 00:55:29;;;;;;;77.03;32.35;;;1.10;99.90;;;;;;5054485;28;20044;-87
2021/12/06 00:57:55;;;;;;;69.90;30.77;;;1.00;99.90;;;;;;5074244;28;20032;-88
2021/12/06 01:00:37;;;;;;;68.80;31.70;;;1.10;99.90;;;;;;5074344;28;20032;-87
2021/12/06 01:03:06;;;;;;;76.53;33.72;;;1.10;99.90;;;;;;5074502;28;20024;-88
2021/12/06 01:05:32;;;;;;;73.95;33.38;;;1.10;99.90;;;;;;5073392;28;20020;-88
2021/12/06 01:07:58;;;;;;;74.07;32.55;;;1.00;99.90;;;;;;5074276;28;20032;-88
2021/12/06 01:10:27;;;;;;;82.70;36.20;;;1.00;99.90;;;;;;5075287;28;20028;-87
2021/12/06 01:12:55;;;;;;;80.60;35.25;;;1.00;99.90;;;;;;5075643;28;20017;-88
2021/12/06 01:15:21;;;;;;;80.53;35.33;;;0.90;99.90;;;;;;5075253;28;20024;-88
2021/12/06 01:17:47;;;;;;;77.80;33.80;;;1.00;99.90;;;;;;5074017;28;20021;-88
2021/12/06 01:20:19;;;;;;;75.88;33.22;;;0.90;99.90;;;;;;5075207;28;20020;-87
2021/12/06 01:23:00;;;;;;;77.45;33.75;;;1.00;99.90;;;;;;5056500;28;20120;-88
2021/12/06 01:26:27;;;;;;;73.40;30.17;;;1.00;99.90;;;;;;5053058;28;20029;-87
2021/12/06 01:31:05;;;;;;;77.07;32.58;;;1.00;99.90;;;;;;5055404;28;20025;-88
2021/12/06 01:41:36;;;;;;;80.97;33.15;;;1.00;99.90;;;;;;5054684;28;20182;-87
2021/12/06 01:44:10;;;;;;;86.97;35.45;;;0.90;99.90;;;;;;5036884;28;20018;-88
2021/12/06 01:46:39;;;;;;;84.35;33.55;;;0.90;99.90;;;;;;5036835;28;20479;-87
2021/12/06 01:49:07;;;;;;;91.35;34.85;;;0.90;99.90;;;;;;5037125;28;20402;-88
2021/12/06 01:51:34;;;;;;;86.03;32.83;;;1.00;99.90;;;;;;5051979;28;20031;-88
2021/12/06 01:54:00;;;;;;;83.97;32.30;;;1.00;99.90;;;;;;5056606;28;20082;-87
2021/12/06 01:56:26;;;;;;;93.55;35.40;;;0.90;99.90;;;;;;5056551;28;20418;-87
2021/12/06 01:58:53;;;;;;;91.45;35.67;;;1.00;99.90;;;;;;5074386;28;20054;-88
2021/12/06 02:01:20;;;;;;;74.80;30.70;;;1.00;99.90;;;;;;5056411;28;20025;-87
2021/12/06 02:03:46;;;;;;;85.00;32.80;;;1.00;99.90;;;;;;5056459;28;20489;-87
2021/12/06 02:06:11;;;;;;;85.32;33.67;;;1.00;99.90;;;;;;5046022;28;20033;-88
2021/12/06 02:08:37;;;;;;;88.80;33.20;;;1.00;99.90;;;;;;5036606;28;20028;-87
2021/12/06 02:11:04;;;;;;;98.47;35.95;;;0.90;99.90;;;;;;5054399;28;20056;-88
2021/12/06 02:13:38;;;;;;;88.57;33.80;;;0.90;99.90;;;;;;5036437;28;20479;-87
2021/12/06 02:16:05;;;;;;;93.00;33.80;;;0.90;99.90;;;;;;5036511;28;20025;-88
2021/12/06 02:21:19;;;;;;;82.95;31.75;;;0.90;99.90;;;;;;5061168;28;20062;-88
2021/12/06 02:23:47;;;;;;;89.90;33.35;;;0.90;99.90;;;;;;5056250;28;20028;-88
2021/12/06 02:26:13;;;;;;;83.05;30.75;;;0.90;99.90;;;;;;5056450;28;20035;-88
2021/12/06 02:28:39;;;;;;;84.90;32.20;;;1.00;99.90;;;;;;5056385;28;20372;-88
2021/12/06 02:31:05;;;;;;;76.70;31.30;;;1.00;99.90;;;;;;5056256;28;20095;-88
2021/12/06 02:33:31;;;;;;;79.78;31.05;;;1.00;99.90;;;;;;5074221;28;20386;-87
2021/12/06 02:35:56;;;;;;;85.10;33.13;;;1.00;99.90;;;;;;5055727;28;20546;-88
2021/12/06 02:38:22;;;;;;;82.63;32.13;;;1.00;99.90;;;;;;5056159;28;20055;-88
2021/12/06 02:40:48;;;;;;;85.50;33.15;;;1.00;99.90;;;;;;5059729;28;20063;-88
2021/12/06 02:43:14;;;;;;;92.88;34.97;;;1.00;99.90;;;;;;5072889;28;20024;-87
2021/12/06 02:45:41;;;;;;;92.65;35.47;;;1.00;99.90;;;;;;5072748;28;20496;-88
2021/12/06 02:48:09;;;;;;;108.20;36.92;;;0.90;99.90;;;;;;5074334;28;20027;-88
2021/12/06 02:50:57;;;;;;;91.47;33.42;;;1.00;99.90;;;;;;5067408;28;20037;-88
2021/12/06 02:53:25;;;;;;;90.07;33.70;;;1.10;99.90;;;;;;5073143;28;20060;-88
2021/12/06 02:55:58;;;;;;;109.28;39.00;;;1.00;99.90;;;;;;5072379;28;20118;-88
2021/12/06 03:01:11;;;;;;;113.75;40.28;;;1.00;99.90;;;;;;5074079;28;20067;-89
2021/12/06 03:03:38;;;;;;;106.55;38.53;;;1.00;99.90;;;;;;5066809;28;20025;-88
2021/12/06 03:06:04;;;;;;;96.53;36.08;;;1.00;99.90;;;;;;5066126;28;20474;-88
2021/12/06 03:08:55;;;;;;;98.70;36.75;;;1.10;99.90;;;;;;5052714;28;20048;-88
2021/12/06 03:11:23;;;;;;;101.30;37.60;;;1.00;99.90;;;;;;5053853;28;20056;-88
2021/12/06 03:13:49;;;;;;;113.45;39.28;;;1.10;99.90;;;;;;5052679;28;20071;-88
2021/12/06 03:16:15;;;;;;;99.90;37.40;;;1.10;99.90;;;;;;5053653;28;20029;-88
2021/12/06 03:18:46;;;;;;;109.60;40.72;;;1.00;99.90;;;;;;5053696;28;20490;-88
2021/12/06 03:21:12;;;;;;;102.93;37.95;;;1.00;99.90;;;;;;5052441;28;20075;-88
2021/12/06 03:23:38;;;;;;;108.28;39.33;;;1.00;99.90;;;;;;5053835;28;20024;-88
2021/12/06 03:26:03;;;;;;;113.30;39.55;;;1.10;99.90;;;;;;5061015;28;20111;-88
2021/12/06 03:28:34;;;;;;;105.97;38.60;;;1.10;99.90;;;;;;5073168;28;20051;-88
2021/12/06 03:31:00;;;;;;;95.80;33.80;;;1.20;99.90;;;;;;5072373;28;20051;-88
2021/12/06 03:33:25;;;;;;;116.57;40.97;;;1.20;99.90;;;;;;5072418;28;20032;-89
2021/12/06 03:35:51;;;;;;;95.05;36.13;;;1.10;99.90;;;;;;5072507;28;20025;-88
2021/12/06 03:38:17;;;;;;;102.85;38.22;;;1.10;99.90;;;;;;5073716;28;20534;-88
2021/12/06 03:40:42;;;;;;;105.75;37.47;;;1.10;99.90;;;;;;5071443;28;20062;-88
2021/12/06 03:43:08;;;;;;;103.68;39.40;;;1.20;99.90;;;;;;5072343;28;20103;-89
2021/12/06 03:45:36;;;;;;;98.10;35.83;;;1.20;99.90;;;;;;5069883;28;20043;-88
2021/12/06 03:48:03;;;;;;;107.97;39.50;;;1.20;99.90;;;;;;5052539;28;20102;-88
2021/12/06 03:50:29;;;;;;;97.47;35.67;;;1.30;99.90;;;;;;5055435;28;20029;-88
2021/12/06 03:52:54;;;;;;;109.88;37.92;;;1.30;99.90;;;;;;5055702;28;20032;-87
2021/12/06 03:55:20;;;;;;;107.80;39.35;;;1.30;99.90;;;;;;5062874;28;20017;-91
2021/12/06 03:57:46;;;;;;;106.78;38.08;;;1.20;99.90;;;;;;5074043;28;20052;-88
2021/12/06 04:00:13;;;;;;;105.00;37.83;;;1.20;99.90;;;;;;5075445;28;20021;-88
2021/12/06 04:02:39;;;;;;;101.35;35.97;;;1.20;99.90;;;;;;5075278;28;20029;-87
2021/12/06 04:05:06;;;;;;;122.90;41.70;;;1.30;99.90;;;;;;5075600;28;20459;-87
2021/12/06 04:07:32;;;;;;;114.25;39.95;;;1.20;99.90;;;;;;5076491;28;20356;-87
2021/12/06 04:09:57;;;;;;;122.95;38.25;;;1.30;99.90;;;;;;5074690;28;20023;-87
2021/12/06 04:12:23;;;;;;;106.28;36.72;;;1.30;99.90;;;;;;5070747;28;20032;-87
2021/12/06 04:14:51;;;;;;;112.30;38.08;;;1.30;99.90;;;;;;5055018;28;20029;-86
2021/12/06 04:17:17;;;;;;;106.15;37.78;;;1.30;99.90;;;;;;5054900;28;20120;-86
2021/12/06 04:19:43;;;;;;;121.93;41.08;;;1.30;99.90;;;;;;5055066;28;20060;-87
2021/12/06 04:22:10;;;;;;;113.53;41.35;;;1.30;99.90;;;;;;5056056;28;20055;-87
2021/12/06 04:24:36;;;;;;;120.72;40.90;;;1.20;99.90;;;;;;5069622;28;20029;-87
2021/12/06 04:27:12;;;;;;;110.82;39.33;;;1.20;99.90;;;;;;5061383;28;20694;-88
2021/12/06 04:29:40;;;;;;;120.22;39.13;;;1.20;99.90;;;;;;5072982;28;20371;-87
2021/12/06 04:32:06;;;;;;;120.70;40.55;;;1.20;99.90;;;;;;5059421;28;20056;-87
2021/12/06 04:34:31;;;;;;;111.50;37.80;;;1.20;99.90;;;;;;5070610;28;20085;-88
2021/12/06 04:36:57;;;;;;;110.18;37.78;;;1.20;99.90;;;;;;5074922;28;20119;-88
2021/12/06 04:39:23;;;;;;;116.05;41.90;;;1.30;99.90;;;;;;5076382;28;20029;-88
2021/12/06 04:41:49;;;;;;;112.38;39.78;;;1.20;99.90;;;;;;5054874;28;20053;-87
2021/12/06 04:44:16;;;;;;;106.63;37.22;;;1.30;99.90;;;;;;5061486;28;20025;-87
2021/12/06 04:46:41;;;;;;;119.65;38.53;;;1.30;99.90;;;;;;5069529;28;20028;-87
2021/12/06 04:49:07;;;;;;;113.78;40.15;;;1.30;99.90;;;;;;5074509;28;20531;-87
2021/12/06 04:51:35;;;;;;;125.40;41.63;;;1.30;99.90;;;;;;5062964;28;20475;-87
2021/12/06 04:54:01;;;;;;;127.10;40.03;;;1.30;99.90;;;;;;5062046;28;20481;-87
2021/12/06 04:56:34;;;;;;;134.27;45.33;;;1.30;99.90;;;;;;5073265;28;20107;-88
2021/12/06 04:59:09;;;;;;;127.03;44.80;;;1.30;99.90;;;;;;5072672;28;20064;-87
2021/12/06 13:53:34;;;;;;;73.90;19.90;;;2.90;99.90;;;;;;5093735;27;20382;-93
2021/12/06 13:56:05;;;;;;;74.78;21.00;;;2.80;99.90;;;;;;5092911;28;20028;-92
2021/12/06 13:58:31;;;;;;;;;;;2.90;99.90;;;;;;5093341;28;20021;-93
2021/12/06 14:01:00;;;;;;;83.43;23.40;;;2.90;99.90;;;;;;5097636;28;19911;-91
2021/12/06 14:03:36;;;;;;;90.50;24.42;;;2.90;99.90;;;;;;5096565;28;20024;-91
2021/12/06 14:06:10;;;;;;;109.38;27.90;;;3.00;99.90;;;;;;5096043;28;20097;-92
2021/12/06 14:08:42;;;;;;;105.85;28.15;;;3.00;99.90;;;;;;5094675;28;20020;-91
2021/12/06 14:11:08;;;;;;;104.80;29.63;;;3.00;99.90;;;;;;5098873;28;20021;-91
2021/12/06 14:13:34;;;;;;;110.78;31.33;;;3.00;99.90;;;;;;5096007;28;20046;-92
2021/12/06 14:16:04;;;;;;;99.03;28.10;;;3.00;99.90;;;;;;5096690;28;20016;-93
2021/12/06 14:18:30;;;;;;;101.43;28.45;;;3.00;99.90;;;;;;5094254;28;20116;-93
2021/12/06 14:21:00;;;;;;;112.32;30.33;;;3.10;99.90;;;;;;5094528;28;20055;-92
2021/12/06 14:23:29;;;;;;;112.10;30.70;;;3.10;99.90;;;;;;5098257;28;20020;-93
2021/12/06 14:26:02;;;;;;;107.53;29.67;;;3.10;99.90;;;;;;5094077;28;20471;-92
2021/12/06 14:28:32;;;;;;;126.70;32.20;;;3.20;99.90;;;;;;5093935;28;20028;-92
2021/12/06 14:31:00;;;;;;;117.65;32.75;;;3.20;99.90;;;;;;5092928;28;20020;-92
2021/12/06 14:33:30;;;;;;;122.45;33.67;;;3.20;99.90;;;;;;5091984;28;20040;-91
2021/12/06 14:35:56;;;;;;;;;;;3.20;99.90;;;;;;5090994;28;20103;-91
2021/12/06 14:38:27;;;;;;;118.45;32.08;;;3.20;99.90;;;;;;5090677;28;19947;-90
2021/12/06 14:40:59;;;;;;;127.20;34.05;;;3.20;99.90;;;;;;5090703;28;20024;-90
2021/12/06 14:43:26;;;;;;;130.75;35.22;;;3.30;99.90;;;;;;5090555;28;20054;-91
2021/12/06 14:45:59;;;;;;;114.25;34.10;;;3.30;99.90;;;;;;5090675;28;20035;-91
2021/12/06 14:48:26;;;;;;;121.47;33.70;;;3.30;99.90;;;;;;5090326;28;20028;-92
2021/12/06 14:53:34;;;;;;;132.98;34.20;;;3.40;99.90;;;;;;5091596;28;20482;-91
2021/12/06 14:56:18;;;;;;;132.57;36.60;;;3.40;99.90;;;;;;5091888;28;20085;-91
2021/12/06 14:58:47;;;;;;;119.95;34.45;;;3.30;99.90;;;;;;5091001;28;20028;-91
2021/12/06 15:01:24;;;;;;;123.33;34.50;;;3.40;99.90;;;;;;5091752;28;20021;-90
2021/12/06 15:04:07;;;;;;;119.28;33.58;;;3.40;99.90;;;;;;5082756;28;20024;-90
2021/12/06 15:06:35;;;;;;;101.95;29.70;;;3.40;99.90;;;;;;5077232;28;20020;-90
2021/12/06 15:09:01;;;;;;;107.57;30.83;;;3.50;99.90;;;;;;5077893;28;20451;-91
2021/12/06 15:11:33;;;;;;;105.03;29.60;;;3.50;99.90;;;;;;5076368;28;20378;-90
2021/12/06 15:14:07;;;;;;;107.13;30.55;;;3.40;99.90;;;;;;5077044;28;20024;-90
2021/12/06 15:16:33;;;;;;;104.35;30.30;;;3.50;99.90;;;;;;5076825;28;20043;-90
2021/12/06 15:18:59;;;;;;;103.95;30.08;;;3.50;99.90;;;;;;5077852;28;20025;-91
2021/12/06 15:21:28;;;;;;;101.10;29.75;;;3.50;99.90;;;;;;5084898;28;20051;-93
2021/12/06 15:23:58;;;;;;;109.65;31.85;;;3.50;99.90;;;;;;5086446;28;20024;-92
2021/12/06 15:26:45;;;;;;;121.18;32.85;;;3.50;99.90;;;;;;5086676;28;20030;-91
2021/12/06 15:29:13;;;;;;;;;;;3.60;99.90;;;;;;5088627;28;20024;-91
2021/12/06 15:31:44;;;;;;;128.00;33.83;;;3.60;99.90;;;;;;5076484;28;19915;-92
2021/12/06 15:34:10;;;;;;;130.93;36.45;;;3.60;99.90;;;;;;5075954;28;20099;-91
2021/12/06 15:36:36;;;;;;;118.55;34.88;;;3.60;99.90;;;;;;5078738;28;20032;-93
2021/12/06 15:39:09;;;;;;;137.30;37.40;;;3.60;99.90;;;;;;5077694;28;20097;-91
2021/12/06 15:41:41;;;;;;;133.07;36.60;;;3.70;99.90;;;;;;5078530;28;20090;-93
2021/12/06 15:44:12;;;;;;;126.07;33.63;;;3.70;99.90;;;;;;5075984;28;20024;-91
2021/12/06 15:46:44;;;;;;;127.72;34.88;;;3.70;99.90;;;;;;5076839;28;20154;-94
2021/12/06 15:49:10;;;;;;;128.05;36.35;;;3.70;99.90;;;;;;5078154;28;20044;-91
2021/12/06 15:51:41;;;;;;;125.72;36.47;;;3.80;99.90;;;;;;5075851;28;20064;-91
2021/12/06 15:54:17;;;;;;;130.02;37.38;;;3.80;99.90;;;;;;5076693;28;20428;-93
2021/12/06 15:57:11;;;;;;;124.35;36.53;;;3.80;99.90;;;;;;5076812;28;20021;-90
2021/12/06 15:59:38;;;;;;;141.95;47.72;;;3.80;99.90;;;;;;5077091;28;20474;-90
2021/12/06 16:02:08;;;;;;;137.65;41.38;;;3.90;99.90;;;;;;5075339;28;20036;-88
2021/12/06 16:04:35;;;;;;;117.80;38.25;;;3.90;99.90;;;;;;5074726;28;20074;-89
2021/12/06 16:07:02;;;;;;;126.10;40.78;;;3.90;99.90;;;;;;5075027;28;20034;-89
2021/12/06 16:09:28;;;;;;;124.55;39.47;;;3.90;99.90;;;;;;5074731;28;20021;-91
2021/12/06 16:12:01;;;;;;;121.88;38.70;;;4.00;99.90;;;;;;5075471;28;20025;-90
2021/12/06 16:14:30;;;;;;;138.15;41.38;;;4.00;99.90;;;;;;5075213;28;20100;-90
2021/12/06 16:16:57;;;;;;;124.10;41.20;;;4.00;99.90;;;;;;5073965;28;20529;-87
2021/12/06 16:19:25;;;;;;;127.82;42.22;;;4.10;99.90;;;;;;5074047;28;20029;-91
2021/12/06 16:21:56;;;;;;;129.88;41.75;;;4.10;99.90;;;;;;5074134;28;20471;-87
2021/12/06 16:24:24;;;;;;;114.32;40.38;;;4.10;99.90;;;;;;5074216;28;20398;-89
2021/12/06 16:26:54;;;;;;;115.15;40.15;;;4.20;99.90;;;;;;5074731;28;20435;-89
2021/12/06 16:29:26;;;;;;;134.80;47.55;;;4.20;99.90;;;;;;5074330;28;20035;-90
2021/12/06 16:32:05;;;;;;;130.02;45.10;;;4.10;99.90;;;;;;5075150;28;20029;-90
2021/12/06 16:34:35;;;;;;;135.57;48.22;;;4.20;99.90;;;;;;5074902;28;20031;-90
2021/12/06 16:37:12;;;;;;;129.93;48.23;;;4.20;99.90;;;;;;5074475;28;20086;-85
2021/12/06 16:39:54;;;;;;;130.35;49.13;;;4.20;99.90;;;;;;5074082;28;20035;-88
2021/12/06 16:42:28;;;;;;;197.32;86.97;;;4.20;99.90;;;;;;5075247;28;20095;-91
2021/12/06 16:45:21;;;;;;;133.27;53.25;;;4.20;99.90;;;;;;5076225;28;20118;-91
2021/12/06 16:47:54;;;;;;;137.23;47.60;;;4.20;99.90;;;;;;5075651;28;20020;-91
2021/12/06 16:50:38;;;;;;;133.43;47.15;;;4.30;99.90;;;;;;5074591;28;20025;-91
2021/12/06 16:53:14;;;;;;;136.45;50.60;;;4.30;99.90;;;;;;5076804;28;20044;-91
2021/12/06 16:55:51;;;;;;;141.27;51.85;;;4.30;99.90;;;;;;5078391;28;20083;-91
2021/12/06 16:58:29;;;;;;;144.32;51.60;;;4.30;99.90;;;;;;5074272;28;20025;-91
2021/12/06 17:01:01;;;;;;;132.93;51.85;;;4.40;99.90;;;;;;5074701;28;20021;-92
2021/12/06 17:03:53;;;;;;;135.95;51.53;;;4.40;99.90;;;;;;5075873;28;20102;-91
2021/12/06 17:06:23;;;;;;;135.77;50.22;;;4.40;99.90;;;;;;5080300;28;20063;-92
2021/12/06 17:08:52;;;;;;;127.75;49.47;;;4.40;99.90;;;;;;5081465;28;20032;-92
2021/12/06 17:14:03;;;;;;;129.18;51.88;;;4.40;99.90;;;;;;4977810;28;20332;-91
2021/12/06 17:16:33;;;;;;;146.07;54.75;;;4.50;99.90;;;;;;4959806;28;20110;-91
2021/12/06 17:19:26;;;;;;;136.18;51.55;;;4.50;99.90;;;;;;4963811;28;20027;-91
2021/12/06 17:22:15;;;;;;;129.43;51.83;;;4.50;99.90;;;;;;4962796;28;20030;-91
2021/12/06 17:24:47;;;;;;;132.63;51.90;;;4.60;99.90;;;;;;4979452;28;20114;-89
2021/12/06 17:27:32;;;;;;;133.07;51.58;;;4.60;99.90;;;;;;4958765;28;20766;-90
2021/12/06 17:29:59;;;;;;;142.50;55.53;;;4.60;99.90;;;;;;4958589;28;20085;-91
2021/12/06 17:32:25;;;;;;;132.77;49.13;;;4.60;99.90;;;;;;4960298;28;20034;-90
2021/12/06 17:34:51;;;;;;;145.98;56.33;;;4.60;99.90;;;;;;4960367;28;20025;-89
2021/12/06 17:37:18;;;;;;;135.90;52.92;;;4.70;99.90;;;;;;4962984;28;20027;-92
2021/12/06 17:39:46;;;;;;;136.73;53.85;;;4.70;99.90;;;;;;4967648;28;20126;-91
2021/12/06 17:42:13;;;;;;;136.00;54.53;;;4.70;99.90;;;;;;4965399;28;20026;-93
2021/12/06 17:44:41;;;;;;;126.72;51.15;;;4.70;99.90;;;;;;4982507;28;20050;-93
2021/12/06 17:47:07;;;;;;;134.55;52.33;;;4.70;99.90;;;;;;4968451;28;20058;-93
2021/12/06 17:49:35;;;;;;;133.18;53.40;;;4.70;99.90;;;;;;4967918;28;20019;-93
2021/12/06 17:52:03;;;;;;;152.30;59.17;;;4.70;99.90;;;;;;4966147;28;20027;-93
2021/12/06 17:54:31;;;;;;;132.45;51.60;;;4.70;99.90;;;;;;4965612;28;20022;-93
2021/12/06 17:56:59;;;;;;;130.35;50.88;;;4.70;99.90;;;;;;4967514;28;20023;-92
2021/12/06 17:59:28;;;;;;;135.35;52.60;;;4.70;99.90;;;;;;4965999;28;20038;-93
2021/12/06 18:02:00;;;;;;;126.43;47.28;;;4.80;99.90;;;;;;4948315;28;20062;-93
2021/12/06 18:04:36;;;;;;;114.82;44.33;;;4.80;99.90;;;;;;4964828;28;20039;-93
2021/12/06 18:07:04;;;;;;;137.88;49.83;;;4.80;99.90;;;;;;4945502;28;20122;-90
2021/12/06 18:09:30;;;;;;;111.43;45.28;;;4.80;99.90;;;;;;4957982;28;20030;-89
2021/12/06 18:11:58;;;;;;;137.75;50.00;;;4.80;99.90;;;;;;4957754;28;20054;-89
2021/12/06 18:14:27;;;;;;;130.15;47.70;;;4.80;99.90;;;;;;4958010;28;20023;-89
2021/12/06 18:16:55;;;;;;;125.35;47.72;;;4.80;99.90;;;;;;4958117;28;20018;-88
2021/12/06 18:19:22;;;;;;;126.05;45.95;;;4.80;99.90;;;;;;4958025;28;20117;-89
2021/12/06 18:21:49;;;;;;;123.03;45.00;;;4.90;99.90;;;;;;4957722;28;20029;-87
2021/12/06 18:24:16;;;;;;;136.25;48.30;;;4.90;99.90;;;;;;4957322;28;20030;-88
2021/12/06 18:26:42;;;;;;;121.80;47.35;;;4.90;99.90;;;;;;4957481;28;20378;-88
2021/12/06 18:29:10;;;;;;;128.68;47.53;;;4.90;99.90;;;;;;4957085;28;20469;-88
2021/12/06 18:31:40;;;;;;;147.07;50.83;;;5.00;99.90;;;;;;4957065;28;20541;-88
2021/12/06 18:34:06;;;;;;;133.65;50.78;;;4.90;99.90;;;;;;4957239;28;20027;-89
2021/12/06 18:36:35;;;;;;;153.43;55.95;;;5.00;99.90;;;;;;4957204;28;20019;-89
2021/12/06 18:39:05;;;;;;;149.60;53.40;;;4.90;99.90;;;;;;4958487;28;20037;-88
2021/12/06 18:41:32;;;;;;;147.10;50.05;;;4.90;99.90;;;;;;4961068;28;20058;-88
2021/12/06 18:46:27;;;;;;;127.18;44.45;;;5.00;99.90;;;;;;4978475;28;20114;-87
2021/12/06 18:48:53;;;;;;;160.23;52.38;;;5.00;99.90;;;;;;4960885;28;20062;-88
2021/12/06 18:51:21;;;;;;;142.32;49.78;;;5.00;99.90;;;;;;4960777;28;20031;-87
2021/12/06 18:53:51;;;;;;;142.40;48.47;;;5.00;99.90;;;;;;4960377;28;20033;-88
2021/12/06 18:56:17;;;;;;;149.20;48.78;;;5.00;99.90;;;;;;4960903;28;20030;-88
2021/12/06 18:58:43;;;;;;;140.55;49.25;;;5.00;99.90;;;;;;4960742;28;20023;-88
2021/12/06 19:01:12;;;;;;;155.18;51.80;;;5.10;99.90;;;;;;4960796;28;20022;-88
2021/12/06 19:03:38;;;;;;;154.32;53.65;;;5.00;99.90;;;;;;4960604;28;20381;-88
2021/12/06 19:06:04;;;;;;;147.07;50.67;;;5.10;99.90;;;;;;4960615;28;20035;-88
2021/12/06 19:08:30;;;;;;;136.88;48.80;;;5.10;99.90;;;;;;4960370;28;20113;-88
2021/12/06 19:10:58;;;;;;;135.15;46.70;;;5.10;99.90;;;;;;4960380;28;20122;-88
2021/12/06 19:13:24;;;;;;;162.38;51.80;;;5.10;99.90;;;;;;4960170;28;20047;-88
2021/12/06 19:15:50;;;;;;;136.48;48.42;;;5.10;99.90;;;;;;4960424;28;20023;-88
2021/12/06 19:18:16;;;;;;;177.43;52.70;;;5.10;99.90;;;;;;4960379;28;20389;-88
2021/12/06 19:20:42;;;;;;;158.80;50.10;;;5.20;99.90;;;;;;4977978;28;20047;-88
2021/12/06 19:23:10;;;;;;;146.25;50.33;;;5.10;99.90;;;;;;4960394;28;20073;-88
2021/12/06 19:25:40;;;;;;;168.48;53.40;;;5.10;99.90;;;;;;4959994;28;20038;-88
2021/12/06 19:28:13;;;;;;;142.00;49.70;;;5.20;99.90;;;;;;4960202;28;20035;-88
2021/12/06 19:30:44;;;;;;;165.27;52.72;;;5.20;99.90;;;;;;4960265;28;20038;-88
2021/12/06 19:33:11;;;;;;;160.73;51.38;;;5.20;99.90;;;;;;4960109;28;20113;-88
2021/12/06 19:35:39;;;;;;;169.38;52.35;;;5.20;99.90;;;;;;4977401;28;20022;-88
2021/12/06 19:38:06;;;;;;;160.98;51.33;;;5.20;99.90;;;;;;4960074;28;20023;-88
2021/12/06 19:40:32;;;;;;;145.63;48.30;;;5.20;99.90;;;;;;4959894;28;20029;-88
2021/12/06 19:42:59;;;;;;;160.93;52.22;;;5.20;99.90;;;;;;4977041;28;20033;-88
2021/12/06 19:45:25;;;;;;;169.13;51.25;;;5.20;99.90;;;;;;4959770;28;20027;-88
2021/12/06 19:47:52;;;;;;;144.95;49.05;;;5.30;99.90;;;;;;4959828;28;20038;-88
2021/12/06 19:50:18;;;;;;;155.10;49.45;;;5.30;99.90;;;;;;4959645;28;20027;-88
2021/12/06 19:52:45;;;;;;;144.57;46.30;;;5.30;99.90;;;;;;4959688;28;20029;-88
2021/12/06 19:55:11;;;;;;;186.05;53.45;;;5.40;99.90;;;;;;4959833;28;20023;-89
2021/12/06 19:57:40;;;;;;;164.35;51.28;;;5.40;99.90;;;;;;4959650;28;20023;-88
2021/12/06 20:00:13;;;;;;;163.23;47.35;;;5.40;99.90;;;;;;4959510;28;20027;-88
2021/12/06 20:02:40;;;;;;;195.48;54.60;;;5.40;99.90;;;;;;4977131;28;20077;-88
2021/12/06 20:05:06;;;;;;;199.00;54.40;;;5.40;99.90;;;;;;4959560;28;20031;-88
2021/12/06 20:07:32;;;;;;;204.90;55.67;;;5.40;99.90;;;;;;4959559;28;20030;-88
2021/12/06 20:09:58;;;;;;;224.50;57.50;;;5.40;99.90;;;;;;4959519;28;20027;-88
2021/12/06 20:12:25;;;;;;;172.38;50.53;;;5.40;99.90;;;;;;4961290;28;20078;-91
2021/12/06 20:14:52;;;;;;;218.40;53.55;;;5.40;99.90;;;;;;4951216;28;20027;-91
2021/12/06 20:17:19;;;;;;;200.65;53.20;;;5.50;99.90;;;;;;4964723;28;20023;-92
2021/12/06 20:19:45;;;;;;;200.40;52.92;;;5.50;99.90;;;;;;4963191;28;20051;-92
2021/12/06 20:22:11;;;;;;;227.38;53.30;;;5.60;99.90;;;;;;4960759;28;20035;-92
2021/12/06 20:24:38;;;;;;;215.82;52.17;;;5.60;99.90;;;;;;4960212;28;20033;-92
2021/12/06 20:27:06;;;;;;;194.50;49.47;;;5.60;99.90;;;;;;4960271;28;20022;-91
2021/12/06 20:29:32;;;;;;;200.82;50.25;;;5.70;99.90;;;;;;4961570;28;20030;-92
2021/12/06 20:31:58;;;;;;;249.40;52.63;;;5.70;99.90;;;;;;4961082;28;20027;-92
2021/12/06 20:34:24;;;;;;;242.52;53.42;;;5.70;99.90;;;;;;4961574;28;20022;-92
2021/12/06 20:36:50;;;;;;;224.88;49.90;;;5.70;99.90;;;;;;4967084;28;20019;-92
2021/12/06 20:39:17;;;;;;;296.23;60.75;;;5.70;99.90;;;;;;4966896;28;20027;-91
2021/12/06 20:41:43;;;;;;;292.30;57.50;;;5.80;99.90;;;;;;4964183;28;20038;-92
2021/12/06 20:44:09;;;;;;;239.25;52.80;;;5.80;99.90;;;;;;4960760;28;20026;-92
2021/12/06 20:46:36;;;;;;;299.02;59.75;;;5.80;99.90;;;;;;4960546;28;20034;-93
2021/12/06 20:49:03;;;;;;;263.10;54.85;;;5.90;99.90;;;;;;4959550;28;20022;-92
2021/12/06 20:51:32;;;;;;;233.60;50.70;;;5.90;99.90;;;;;;4959887;28;20077;-92
2021/12/06 20:54:00;;;;;;;259.38;51.55;;;5.90;99.90;;;;;;4959814;28;20023;-93
2021/12/06 20:56:26;;;;;;;245.98;51.30;;;5.90;99.90;;;;;;4944227;28;20034;-92
2021/12/06 20:58:52;;;;;;;241.05;52.15;;;6.00;99.90;;;;;;4977097;28;20033;-92
2021/12/06 21:01:18;;;;;;;265.30;52.95;;;6.00;99.90;;;;;;4959544;28;20114;-92
2021/12/06 21:03:44;;;;;;;216.23;50.20;;;6.00;99.90;;;;;;4960622;28;20023;-92
2021/12/06 21:06:10;;;;;;;258.85;54.60;;;6.00;99.90;;;;;;4960976;28;20023;-91
2021/12/06 21:08:38;;;;;;;253.57;57.47;;;6.10;99.90;;;;;;4960762;28;20133;-92
2021/12/06 21:11:25;;;;;;;331.85;61.30;;;6.10;99.90;;;;;;4959626;28;20034;-92
2021/12/06 21:14:12;;;;;;;325.05;61.55;;;6.10;99.90;;;;;;4959429;28;20557;-92
2021/12/06 21:16:41;;;;;;;366.50;70.82;;;6.10;99.90;;;;;;4961303;28;20027;-92
2021/12/06 21:19:11;;;;;;;295.23;66.03;;;6.10;99.90;;;;;;4960255;28;20118;-92
2021/12/06 21:21:39;;;;;;;330.08;62.28;;;6.20;99.90;;;;;;4960615;28;20114;-92
2021/12/06 21:24:06;;;;;;;286.25;60.67;;;6.20;99.90;;;;;;4959845;28;20034;-91
2021/12/06 21:26:32;;;;;;;311.52;59.95;;;6.20;99.90;;;;;;4959291;28;20109;-92
2021/12/06 21:28:58;;;;;;;269.45;54.72;;;6.20;99.90;;;;;;4959093;28;20489;-92
2021/12/06 21:31:24;;;;;;;327.42;60.67;;;6.20;99.90;;;;;;4959825;28;20026;-92
2021/12/06 21:33:50;;;;;;;278.15;55.00;;;6.30;99.90;;;;;;4960403;28;20034;-92
2021/12/06 21:36:17;;;;;;;249.25;53.50;;;6.30;99.90;;;;;;4960079;28;20022;-92
2021/12/06 21:38:44;;;;;;;367.83;61.58;;;6.30;99.90;;;;;;4959306;28;20409;-92
2021/12/06 21:41:10;;;;;;;301.27;55.25;;;6.30;99.90;;;;;;4959567;28;20537;-91
2021/12/06 21:43:36;;;;;;;369.83;62.83;;;6.40;99.90;;;;;;4959012;28;20058;-93
2021/12/06 21:46:04;;;;;;;281.50;53.33;;;6.30;99.90;;;;;;4959158;28;20062;-92
2021/12/06 21:48:30;;;;;;;315.27;55.17;;;6.40;99.90;;;;;;4958366;28;20058;-92
2021/12/06 21:50:57;;;;;;;253.95;54.17;;;6.40;99.90;;;;;;4958488;28;20529;-92
2021/12/06 21:53:23;;;;;;;309.65;56.75;;;6.40;99.90;;;;;;4958143;28;20054;-92
2021/12/06 21:55:50;;;;;;;289.77;54.08;;;6.40;99.90;;;;;;4958566;28;20466;-92